Time;durP1;ratioP1;P1;durP2;ratioP2;P2;SDS_P1;SDS_P2;PMS_P1;PMS_P2;Temp;Humidity;BMP_temperature;BMP_pressure;BME280_temperature;BME280_humidity;BME280_pressure;Samples;Min_cycle;Max_cycle;Signal;HPM_P1;HPM_P2
2021/07/10 00:01:06;;;;;;;14.83;8.10;;;;;;;18.04;68.82;98400.63;8382611;28;20227;-66
2021/07/10 00:05:12;;;;;;;16.80;8.13;;;;;;;18.03;68.74;98403.34;8383354;28;20208;-66
2021/07/10 00:09:16;;;;;;;20.47;7.97;;;;;;;17.95;68.34;98409.97;8388570;28;20219;-66
2021/07/10 00:13:20;;;;;;;15.20;6.70;;;;;;;17.85;68.18;98402.81;8383022;28;20207;-66
2021/07/10 00:17:23;;;;;;;11.00;6.67;;;;;;;17.84;68.52;98404.59;8382723;28;20222;-66
2021/07/10 00:21:26;;;;;;;13.47;6.70;;;;;;;17.87;68.27;98395.69;8382576;28;20326;-66
2021/07/10 00:25:29;;;;;;;8.13;6.10;;;;;;;17.79;68.39;98380.47;8382653;28;20204;-65
2021/07/10 00:29:33;;;;;;;4.53;4.13;;;;;;;17.84;68.11;98381.03;8382228;28;20396;-66
2021/07/10 00:33:36;;;;;;;2.93;2.57;;;;;;;17.69;67.49;98375.00;8382440;28;20214;-67
2021/07/10 00:37:39;;;;;;;15.37;4.40;;;;;;;17.62;68.01;98371.09;8382927;28;20392;-66
2021/07/10 00:41:42;;;;;;;36.40;5.83;;;;;;;17.63;68.44;98358.84;8381680;28;20296;-66
2021/07/10 00:45:47;;;;;;;8.83;4.73;;;;;;;17.63;68.25;98364.94;8382305;28;20204;-65
2021/07/10 00:49:50;;;;;;;6.47;4.57;;;;;;;17.61;67.89;98365.97;8382080;28;20211;-66
2021/07/10 00:53:52;;;;;;;3.70;3.43;;;;;;;17.58;67.31;98356.53;8382101;28;20203;-66
2021/07/10 00:57:56;;;;;;;6.03;4.40;;;;;;;17.52;67.86;98351.72;8381873;28;20306;-66
2021/07/10 01:02:00;;;;;;;10.93;3.97;;;;;;;17.43;67.19;98350.53;8381892;28;20234;-66
2021/07/10 01:06:03;;;;;;;3.43;2.90;;;;;;;17.22;67.36;98344.13;8384205;28;20499;-66
2021/07/10 01:10:07;;;;;;;8.67;2.40;;;;;;;17.25;67.12;98342.13;8397554;28;20199;-66
2021/07/10 01:14:09;;;;;;;2.87;2.20;;;;;;;17.19;66.90;98348.63;8397516;28;20196;-66
2021/07/10 01:18:14;;;;;;;8.00;2.83;;;;;;;17.20;66.75;98347.66;8411679;28;20528;-66
2021/07/10 01:22:18;;;;;;;8.07;2.80;;;;;;;17.19;67.01;98356.47;8414623;28;20226;-66
2021/07/10 01:26:21;;;;;;;5.20;2.10;;;;;;;17.19;67.26;98350.38;8414920;28;20199;-66
2021/07/10 01:30:24;;;;;;;3.13;2.00;;;;;;;17.19;66.70;98356.47;8414619;28;20250;-66
2021/07/10 01:34:29;;;;;;;3.20;2.17;;;;;;;17.05;67.27;98345.22;8414655;28;20201;-65
2021/07/10 01:38:33;;;;;;;7.33;2.87;;;;;;;17.11;67.06;98353.50;8414503;28;20201;-65
2021/07/10 01:42:36;;;;;;;15.20;3.43;;;;;;;17.02;67.07;98350.63;8414517;28;20227;-66
2021/07/10 01:46:39;;;;;;;14.60;3.50;;;;;;;16.93;67.27;98345.06;8415073;28;20203;-65
2021/07/10 01:50:43;;;;;;;5.40;3.37;;;;;;;16.95;66.84;98339.75;8415018;28;20222;-65
2021/07/10 01:54:47;;;;;;;6.90;3.57;;;;;;;17.02;66.93;98332.31;8420686;28;20205;-66
2021/07/10 01:58:50;;;;;;;28.83;6.77;;;;;;;16.88;67.94;98333.22;8420339;28;20207;-65
2021/07/10 02:02:53;;;;;;;15.97;5.20;;;;;;;16.92;68.00;98325.06;8420127;28;20249;-65
2021/07/10 02:06:56;;;;;;;129.27;7.23;;;;;;;16.48;69.22;98326.09;8420157;28;20218;-66
2021/07/10 02:11:00;;;;;;;99.47;6.27;;;;;;;16.31;69.56;98316.69;8420038;28;20207;-66
2021/07/10 02:15:04;;;;;;;105.53;6.17;;;;;;;16.29;70.04;98317.72;8419960;28;20203;-66
2021/07/10 02:19:07;;;;;;;51.27;4.63;;;;;;;16.23;70.80;98321.56;8419789;28;20203;-65
2021/07/10 02:23:09;;;;;;;87.13;5.50;;;;;;;16.11;71.28;98323.16;8419456;28;20227;-65
2021/07/10 02:27:14;;;;;;;21.40;4.60;;;;;;;16.48;70.49;98317.41;8419610;28;20389;-65
2021/07/10 02:31:17;;;;;;;47.30;5.20;;;;;;;16.33;71.31;98320.03;8419378;28;20238;-65
2021/07/10 02:35:20;;;;;;;100.27;5.70;;;;;;;16.33;70.54;98317.41;8419263;28;20199;-65
2021/07/10 02:39:23;;;;;;;5.43;4.93;;;;;;;16.34;71.13;98316.50;8419158;28;20206;-65
2021/07/10 02:43:27;;;;;;;17.57;5.10;;;;;;;16.60;70.43;98327.94;8418790;28;20231;-66
2021/07/10 02:47:30;;;;;;;44.10;6.33;;;;;;;16.57;70.61;98327.28;8419003;28;20203;-66
2021/07/10 02:51:33;;;;;;;241.57;9.97;;;;;;;15.94;73.58;98323.34;8418709;28;20397;-65
2021/07/10 02:55:36;;;;;;;303.93;11.47;;;;;;;15.87;73.13;98319.41;8418453;28;20199;-65
2021/07/10 02:59:41;;;;;;;131.50;9.43;;;;;;;16.23;72.45;98319.78;8418765;28;20393;-66
2021/07/10 03:03:44;;;;;;;21.90;7.90;;;;;;;16.37;72.21;98321.56;8417652;28;20226;-66
2021/07/10 03:07:47;;;;;;;122.90;9.07;;;;;;;16.11;72.84;98320.53;8418322;28;20249;-66
2021/07/10 03:11:50;;;;;;;496.67;13.13;;;;;;;15.94;73.53;98326.78;8418000;28;20278;-65
2021/07/10 03:15:54;;;;;;;18.90;7.80;;;;;;;16.40;72.56;98334.41;8417984;28;20221;-66
2021/07/10 03:19:57;;;;;;;143.43;10.73;;;;;;;16.39;72.22;98335.34;8417611;28;20461;-65
2021/07/10 03:23:59;;;;;;;54.13;9.13;;;;;;;16.45;72.55;98333.28;8417556;28;20226;-66
2021/07/10 03:28:02;;;;;;;31.23;9.10;;;;;;;16.56;71.80;98336.06;8417233;28;20432;-65
2021/07/10 03:32:07;;;;;;;50.10;8.97;;;;;;;16.40;72.59;98338.81;8417496;28;20494;-66
2021/07/10 03:36:10;;;;;;;103.93;11.43;;;;;;;16.28;73.32;98340.41;8417097;28;20214;-66
2021/07/10 03:40:18;;;;;;;135.00;10.17;;;;;;;16.39;72.36;98335.34;8417032;28;20199;-65
2021/07/10 03:44:20;;;;;;;76.77;10.33;;;;;;;16.51;72.41;98328.53;8416996;28;20227;-65
2021/07/10 03:48:25;;;;;;;264.67;12.67;;;;;;;16.31;72.23;98327.13;8417026;28;20206;-65
2021/07/10 03:52:27;;;;;;;35.57;9.87;;;;;;;16.38;72.82;98317.97;8416645;28;20229;-66
2021/07/10 03:56:30;;;;;;;11.67;9.37;;;;;;;16.58;72.46;98321.13;8416668;28;20494;-65
2021/07/10 04:00:33;;;;;;;80.70;11.10;;;;;;;16.59;72.14;98320.19;8417015;28;20222;-65
2021/07/10 04:04:37;;;;;;;67.80;9.87;;;;;;;16.66;72.25;98315.41;8416448;28;20227;-66
2021/07/10 04:08:40;;;;;;;31.17;10.17;;;;;;;16.61;72.52;98315.69;8416407;28;20242;-65
2021/07/10 04:12:44;;;;;;;62.30;10.47;;;;;;;16.53;73.12;98325.81;8416434;28;20203;-66
2021/07/10 04:16:47;;;;;;;106.07;9.97;;;;;;;16.47;72.90;98331.41;8416305;28;20199;-66
2021/07/10 04:20:51;;;;;;;13.33;7.80;;;;;;;16.58;72.63;98326.34;8415697;28;20210;-66
2021/07/10 04:24:54;;;;;;;38.20;9.23;;;;;;;16.57;72.75;98314.22;8415473;28;20230;-66
2021/07/10 04:28:57;;;;;;;12.13;8.57;;;;;;;16.83;72.01;98320.44;8415336;28;20235;-65
2021/07/10 04:33:00;;;;;;;31.73;10.73;;;;;;;16.71;72.51;98324.63;8415580;28;20249;-66
2021/07/10 04:37:04;;;;;;;81.17;10.87;;;;;;;16.71;72.78;98329.84;8415225;28;20231;-65
2021/07/10 04:41:08;;;;;;;53.27;12.93;;;;;;;16.69;72.92;98318.66;8415488;28;20516;-65
2021/07/10 04:45:12;;;;;;;102.90;14.00;;;;;;;16.66;73.06;98318.00;8415460;28;20238;-65
2021/07/10 04:49:15;;;;;;;17.17;12.67;;;;;;;16.82;73.02;98318.75;8415172;28;20198;-66
2021/07/10 04:53:19;;;;;;;20.70;11.97;;;;;;;16.96;72.89;98312.63;8415248;28;20398;-66
2021/07/10 04:57:22;;;;;;;58.33;13.90;;;;;;;16.83;73.47;98317.84;8415312;28;20206;-65
2021/07/10 05:01:25;;;;;;;26.97;13.40;;;;;;;17.05;73.24;98309.41;8415065;28;20206;-66
2021/07/10 05:05:28;;;;;;;43.10;14.13;;;;;;;17.23;72.78;98306.53;8414594;28;20304;-66
2021/07/10 05:09:33;;;;;;;15.13;13.53;;;;;;;17.28;72.77;98310.50;8414994;28;20203;-66
2021/07/10 05:13:35;;;;;;;19.13;15.07;;;;;;;17.34;72.79;98302.28;8414452;28;20513;-65
2021/07/10 05:17:38;;;;;;;20.43;15.93;;;;;;;17.42;72.24;98303.50;8414789;28;20202;-65
2021/07/10 05:21:42;;;;;;;20.07;16.60;;;;;;;17.47;72.58;98304.88;8414516;28;20199;-66
2021/07/10 05:25:46;;;;;;;24.77;17.43;;;;;;;17.46;72.76;98304.97;8414692;28;20203;-65
2021/07/10 05:29:49;;;;;;;23.63;18.70;;;;;;;17.52;72.40;98297.56;8409279;28;20223;-66
2021/07/10 05:33:53;;;;;;;21.97;18.97;;;;;;;17.40;72.47;98301.00;8403716;28;20513;-66
2021/07/10 05:37:56;;;;;;;20.27;18.07;;;;;;;17.08;73.81;98300.53;8403464;28;20192;-65
2021/07/10 05:42:00;;;;;;;23.30;17.67;;;;;;;17.35;72.80;98297.88;8403315;28;20191;-65
2021/07/10 05:46:03;;;;;;;22.80;16.97;;;;;;;17.25;73.24;98305.50;8403416;28;20196;-66
2021/07/10 05:50:06;;;;;;;18.33;16.37;;;;;;;17.36;73.10;98310.84;8402992;28;20207;-67
2021/07/10 05:54:09;;;;;;;22.47;16.30;;;;;;;17.04;73.60;98306.88;8402973;28;20195;-66
2021/07/10 05:58:15;;;;;;;18.23;15.43;;;;;;;17.29;73.14;98314.81;8400399;28;20200;-65
2021/07/10 06:02:18;;;;;;;18.33;14.60;;;;;;;17.39;72.83;98321.09;8387275;28;20223;-65
2021/07/10 06:06:21;;;;;;;20.60;17.23;;;;;;;17.15;73.33;98322.72;8387031;28;20223;-65
2021/07/10 06:10:24;;;;;;;18.50;16.03;;;;;;;17.33;73.08;98323.31;8386740;28;20260;-65
2021/07/10 06:14:28;;;;;;;16.77;15.03;;;;;;;17.45;72.31;98325.09;8386657;28;20294;-65
2021/07/10 06:18:31;;;;;;;21.93;17.27;;;;;;;17.34;73.08;98328.44;8386603;28;20203;-65
2021/07/10 06:22:34;;;;;;;21.07;18.37;;;;;;;17.24;73.07;98326.53;8386321;28;20231;-65
2021/07/10 06:26:36;;;;;;;26.50;19.07;;;;;;;17.20;73.55;98323.28;8386294;28;20238;-65
2021/07/10 06:30:40;;;;;;;19.60;17.50;;;;;;;17.22;73.76;98326.63;8385891;28;20422;-65
2021/07/10 06:34:43;;;;;;;19.70;17.57;;;;;;;17.33;73.14;98328.53;8386051;28;20392;-66
2021/07/10 06:38:46;;;;;;;21.20;16.10;;;;;;;17.30;73.35;98321.72;8384654;28;20207;-66
2021/07/10 06:42:49;;;;;;;22.23;18.00;;;;;;;17.41;72.42;98325.41;8385799;28;20410;-65
2021/07/10 06:46:53;;;;;;;23.00;18.87;;;;;;;17.16;73.25;98322.63;8385713;28;20215;-66
2021/07/10 06:50:56;;;;;;;20.23;16.57;;;;;;;17.43;72.28;98320.91;8385401;28;20345;-65
2021/07/10 06:54:58;;;;;;;24.73;19.80;;;;;;;16.99;74.22;98321.13;8385333;28;20204;-66
2021/07/10 06:59:01;;;;;;;19.70;15.83;;;;;;;17.53;72.51;98332.44;8385350;28;20233;-65
2021/07/10 07:03:06;;;;;;;16.83;15.07;;;;;;;17.54;72.21;98328.91;8405446;28;20234;-65
2021/07/10 07:07:09;;;;;;;19.43;17.00;;;;;;;17.50;72.33;98328.25;8418105;28;20219;-66
2021/07/10 07:11:12;;;;;;;18.50;15.10;;;;;;;17.36;71.75;98328.31;8418060;28;20374;-65
2021/07/10 07:15:15;;;;;;;21.47;16.27;;;;;;;17.27;73.19;98328.94;8417758;28;20210;-66
2021/07/10 07:19:19;;;;;;;20.20;14.37;;;;;;;17.58;72.16;98332.97;8417703;28;20273;-65
2021/07/10 07:23:22;;;;;;;15.97;14.17;;;;;;;17.70;71.68;98321.66;8417764;28;20234;-65
2021/07/10 07:27:25;;;;;;;16.50;14.27;;;;;;;17.57;71.49;98331.28;8417820;28;20389;-65
2021/07/10 07:31:28;;;;;;;16.07;12.20;;;;;;;17.70;71.07;98318.22;8417570;28;20241;-65
2021/07/10 07:35:32;;;;;;;15.40;11.97;;;;;;;17.74;70.09;98307.44;8417420;28;20276;-65
2021/07/10 07:39:35;;;;;;;13.13;11.33;;;;;;;17.67;70.65;98315.78;8417087;28;20205;-65
2021/07/10 07:43:37;;;;;;;12.23;11.03;;;;;;;17.73;70.64;98315.41;8417013;28;20227;-68
2021/07/10 07:47:41;;;;;;;13.43;11.37;;;;;;;17.77;70.86;98317.69;8415906;28;20393;-65
2021/07/10 07:51:46;;;;;;;13.13;11.63;;;;;;;17.92;70.24;98320.25;8416359;28;20206;-65
2021/07/10 07:55:48;;;;;;;14.47;12.97;;;;;;;17.73;70.27;98313.59;8417403;28;20206;-65
2021/07/10 07:59:51;;;;;;;13.47;12.07;;;;;;;17.87;70.82;98312.69;8417609;28;20206;-65
2021/07/10 08:03:54;;;;;;;14.53;13.03;;;;;;;17.87;70.87;98309.22;8416264;28;20219;-65
2021/07/10 08:07:58;;;;;;;13.33;11.93;;;;;;;17.83;69.64;98315.59;8416000;28;20225;-65
2021/07/10 08:12:01;;;;;;;13.37;12.00;;;;;;;17.95;70.73;98312.16;8416069;28;20229;-66
2021/07/10 08:16:08;;;;;;;12.10;10.87;;;;;;;18.22;69.64;98314.66;8415958;28;20274;-66
2021/07/10 08:20:11;;;;;;;12.00;10.47;;;;;;;18.24;69.35;98315.38;8416234;28;20370;-66
2021/07/10 08:24:16;;;;;;;12.03;10.83;;;;;;;18.03;70.07;98317.72;8416163;28;20226;-65
2021/07/10 08:28:18;;;;;;;10.57;9.53;;;;;;;18.03;69.37;98309.88;8416128;28;20227;-65
2021/07/10 08:32:21;;;;;;;10.53;9.53;;;;;;;17.98;69.68;98318.03;8415561;28;20202;-65
2021/07/10 08:36:24;;;;;;;10.67;9.57;;;;;;;18.12;69.29;98309.19;8415851;28;20203;-65
2021/07/10 08:40:28;;;;;;;9.53;8.67;;;;;;;18.25;69.35;98308.34;8416277;28;20299;-65
2021/07/10 08:44:34;;;;;;;9.77;8.80;;;;;;;18.18;69.33;98305.31;8415373;28;20230;-65
2021/07/10 08:48:36;;;;;;;11.53;8.90;;;;;;;18.17;68.50;98303.66;8415584;28;20198;-65
2021/07/10 08:52:39;;;;;;;9.03;8.13;;;;;;;18.34;68.82;98299.84;8415168;28;20211;-65
2021/07/10 08:56:44;;;;;;;9.60;8.60;;;;;;;18.40;68.04;98299.41;8415320;28;20226;-65
2021/07/10 09:00:47;;;;;;;10.07;8.60;;;;;;;18.64;67.11;98299.44;8414427;28;20206;-64
2021/07/10 09:04:50;;;;;;;9.53;7.87;;;;;;;18.63;66.31;98291.69;8415224;28;20227;-64
2021/07/10 09:08:55;;;;;;;8.97;8.07;;;;;;;18.61;67.29;98294.41;8414484;28;20206;-64
2021/07/10 09:13:00;;;;;;;8.87;7.70;;;;;;;18.50;66.69;98299.56;8414554;28;20250;-64
2021/07/10 09:17:15;;;;;;;8.30;7.40;;;;;;;18.71;66.72;98292.78;8414749;28;20223;-65
2021/07/10 09:21:37;;;;;;;13.20;7.97;;;;;;;18.88;66.30;98288.97;8414364;28;20195;-64
2021/07/10 09:25:40;;;;;;;8.83;8.00;;;;;;;18.86;65.43;98288.25;8413977;28;20226;-64
2021/07/10 09:29:46;;;;;;;8.40;6.13;;;;;;;18.85;65.56;98281.34;8413941;28;20235;-64
2021/07/10 09:33:48;;;;;;;6.70;6.10;;;;;;;19.15;63.66;98277.38;8414092;28;20204;-64
2021/07/10 09:37:54;;;;;;;6.77;6.10;;;;;;;20.25;63.38;98268.06;8414235;28;20206;-64
2021/07/10 09:41:57;;;;;;;7.57;6.87;;;;;;;20.75;59.90;98265.00;8414742;28;20200;-65
2021/07/10 09:46:03;;;;;;;7.07;5.60;;;;;;;20.43;61.64;98263.16;8404236;28;20223;-65
2021/07/10 09:50:09;;;;;;;5.77;5.20;;;;;;;20.86;60.24;98253.59;8387154;28;20478;-64
2021/07/10 09:54:12;;;;;;;7.80;5.27;;;;;;;21.34;57.91;98247.84;8395819;28;20492;-64
2021/07/10 09:58:33;;;;;;;5.73;5.00;;;;;;;21.64;56.39;98241.81;8387906;28;20447;-64
2021/07/10 10:02:44;;;;;;;6.70;5.30;;;;;;;21.69;56.26;98236.16;8379650;28;20231;-64
2021/07/10 10:06:46;;;;;;;7.37;6.00;;;;;;;21.56;57.12;98246.06;8379526;28;20230;-64
2021/07/10 10:10:54;;;;;;;9.23;5.30;;;;;;;22.13;54.80;98242.00;8379565;28;20199;-64
2021/07/10 10:14:57;;;;;;;5.80;5.30;;;;;;;22.51;56.25;98231.72;8384327;28;20496;-64
2021/07/10 10:19:02;;;;;;;7.47;5.27;;;;;;;21.96;56.30;98227.66;8386490;28;20490;-64
2021/07/10 10:23:06;;;;;;;12.90;8.90;;;;;;;22.06;56.06;98225.88;8386659;28;20200;-64
2021/07/10 10:27:09;;;;;;;20.40;12.87;;;;;;;22.49;55.43;98221.28;8386318;28;20537;-64
2021/07/10 10:31:12;;;;;;;6.13;5.50;;;;;;;22.95;54.10;98211.84;8385649;28;20239;-64
2021/07/10 10:35:18;;;;;;;7.60;6.30;;;;;;;23.30;53.31;98209.59;8399167;28;20498;-64
2021/07/10 10:39:27;;;;;;;7.03;5.60;;;;;;;23.49;51.89;98209.53;8407556;28;20199;-64
2021/07/10 10:43:30;;;;;;;8.40;4.57;;;;;;;23.69;52.67;98191.81;8407869;28;20254;-63
2021/07/10 10:47:40;;;;;;;8.27;4.80;;;;;;;24.02;50.59;98192.22;8393176;28;20526;-63
2021/07/10 10:51:44;;;;;;;4.47;4.00;;;;;;;24.50;50.72;98187.59;8418692;28;20540;-65
2021/07/10 10:55:47;;;;;;;6.03;3.90;;;;;;;24.50;51.31;98172.56;8418116;28;20390;-65
2021/07/10 10:59:55;;;;;;;4.10;3.47;;;;;;;24.90;50.59;98173.94;8417944;28;20373;-64
2021/07/10 11:03:58;;;;;;;5.33;3.73;;;;;;;24.38;49.94;98173.75;8417718;28;20206;-64
2021/07/10 11:08:22;;;;;;;5.07;3.77;;;;;;;24.94;48.30;98172.63;8417474;28;20302;-64
2021/07/10 11:12:52;;;;;;;4.60;3.20;;;;;;;24.85;49.03;98173.53;8417338;28;20199;-64
2021/07/10 11:17:09;;;;;;;3.67;3.30;;;;;;;25.20;49.24;98160.38;8416417;28;20206;-64
2021/07/10 11:21:13;;;;;;;5.40;3.20;;;;;;;25.26;47.63;98146.53;8416907;28;20285;-64
2021/07/10 11:25:17;;;;;;;3.60;3.07;;;;;;;25.20;47.02;98141.81;8415839;28;20223;-64
2021/07/10 11:29:21;;;;;;;7.97;3.63;;;;;;;25.26;46.21;98135.94;8416122;28;20560;-64
2021/07/10 11:33:55;;;;;;;3.67;3.30;;;;;;;25.38;47.13;98129.38;8415625;28;20200;-64
2021/07/10 11:37:58;;;;;;;3.83;3.13;;;;;;;25.01;47.47;98127.78;8412542;28;20193;-64
2021/07/10 11:42:33;;;;;;;3.93;2.50;;;;;;;25.53;46.50;98127.78;8398324;28;20211;-64
2021/07/10 11:47:04;;;;;;;3.23;2.87;;;;;;;25.49;45.37;98122.94;8405374;28;20329;-64
2021/07/10 11:51:10;;;;;;;4.13;3.60;;;;;;;25.47;45.49;98112.50;8387516;28;20202;-64
2021/07/10 11:55:13;;;;;;;3.47;2.30;;;;;;;25.58;45.39;98108.75;8382384;28;20204;-64
2021/07/10 11:59:17;;;;;;;3.03;2.40;;;;;;;25.94;46.31;98098.75;8382097;28;20202;-64
2021/07/10 12:03:21;;;;;;;3.23;2.93;;;;;;;25.55;44.54;98101.09;8382004;28;20213;-64
2021/07/10 12:07:25;;;;;;;3.53;2.50;;;;;;;25.78;48.00;98082.78;8381744;28;20261;-64
2021/07/10 12:11:28;;;;;;;3.40;2.40;;;;;;;25.60;42.99;98080.25;8382101;28;20208;-65
2021/07/10 12:15:34;;;;;;;5.60;2.20;;;;;;;25.70;45.81;98077.44;8381826;28;20297;-64
2021/07/10 12:19:37;;;;;;;2.93;2.10;;;;;;;25.85;47.19;98067.88;8381640;28;20207;-64
2021/07/10 12:23:41;;;;;;;2.93;2.10;;;;;;;25.04;46.32;98068.38;8381232;28;20210;-64
2021/07/10 12:27:44;;;;;;;2.50;2.00;;;;;;;25.45;44.79;98066.75;8380890;28;20325;-65
2021/07/10 12:31:48;;;;;;;2.60;2.13;;;;;;;25.84;43.69;98055.63;8383267;28;20205;-65
2021/07/10 12:36:03;;;;;;;3.50;2.13;;;;;;;25.80;44.66;98056.09;8397902;28;20210;-64
2021/07/10 12:40:08;;;;;;;2.33;1.97;;;;;;;26.05;42.19;98054.34;8404813;28;20206;-64
2021/07/10 12:44:20;;;;;;;4.40;1.93;;;;;;;25.89;43.84;98048.00;8410681;28;20201;-64
2021/07/10 12:48:24;;;;;;;2.17;1.97;;;;;;;26.24;43.04;98043.41;8391382;28;20208;-64
2021/07/10 12:52:29;;;;;;;2.73;1.60;;;;;;;26.26;41.37;98038.78;8380375;28;20203;-64
2021/07/10 12:56:42;;;;;;;1.90;1.80;;;;;;;26.09;41.25;98021.19;8389307;28;20424;-64
2021/07/10 13:00:44;;;;;;;2.40;1.97;;;;;;;25.99;40.65;98018.69;8396148;28;20223;-64
2021/07/10 13:04:49;;;;;;;2.43;1.70;;;;;;;26.20;42.79;98012.06;8396163;28;20200;-64
2021/07/10 13:08:54;;;;;;;3.10;1.70;;;;;;;26.18;40.68;98006.94;8395820;28;20515;-64
2021/07/10 13:12:59;;;;;;;2.30;1.67;;;;;;;26.32;40.89;97997.47;8406280;28;20197;-64
2021/07/10 13:17:13;;;;;;;2.17;1.80;;;;;;;26.19;40.65;97994.47;8379743;28;20250;-64
2021/07/10 13:21:21;;;;;;;2.40;1.83;;;;;;;26.27;40.43;97991.81;8379892;28;20223;-64
2021/07/10 13:25:32;;;;;;;3.27;1.87;;;;;;;25.93;40.39;97988.34;8379488;28;20365;-64
2021/07/10 13:29:36;;;;;;;5.90;2.63;;;;;;;25.83;41.08;97987.63;8379634;28;20229;-64
2021/07/10 13:33:39;;;;;;;4.30;2.10;;;;;;;25.40;42.09;97986.06;8379336;28;20270;-66
2021/07/10 13:37:43;;;;;;;3.73;2.03;;;;;;;26.28;42.36;97989.00;8379332;28;20206;-63
2021/07/10 13:41:52;;;;;;;4.20;2.03;;;;;;;26.11;40.30;97980.22;8379309;28;20201;-63
2021/07/10 13:46:07;;;;;;;2.13;1.87;;;;;;;26.09;39.55;97971.59;8379071;28;20326;-63
2021/07/10 13:50:12;;;;;;;3.53;1.90;;;;;;;25.96;40.38;97967.78;8414657;28;20303;-63
2021/07/10 13:54:25;;;;;;;8.90;2.00;;;;;;;26.38;39.19;97969.41;8418845;28;20206;-63
2021/07/10 13:58:29;;;;;;;2.30;2.10;;;;;;;26.67;39.30;97967.06;8412633;28;20206;-64
2021/07/10 14:02:35;;;;;;;4.97;1.80;;;;;;;26.48;39.51;97957.63;8418229;28;20218;-63
2021/07/10 14:06:38;;;;;;;2.30;2.10;;;;;;;26.67;40.37;97956.44;8409773;28;20230;-64
2021/07/10 14:10:43;;;;;;;1.97;1.73;;;;;;;26.73;38.58;97954.91;8396899;28;20286;-63
2021/07/10 14:14:46;;;;;;;3.03;1.60;;;;;;;25.89;38.13;97951.66;8401582;28;20239;-63
2021/07/10 14:18:49;;;;;;;3.87;1.80;;;;;;;26.56;38.40;97947.97;8408720;28;20206;-63
2021/07/10 14:22:51;;;;;;;1.67;1.57;;;;;;;26.48;36.98;97939.03;8395726;28;20206;-63
2021/07/10 14:26:56;;;;;;;2.00;1.80;;;;;;;26.19;37.13;97936.09;8397711;28;20217;-64
2021/07/10 14:30:59;;;;;;;4.73;1.90;;;;;;;26.36;36.57;97928.94;8392595;28;20220;-64
2021/07/10 14:35:02;;;;;;;1.73;1.60;;;;;;;26.43;37.64;97925.44;8417379;28;20197;-63
2021/07/10 14:39:05;;;;;;;2.87;2.40;;;;;;;26.68;38.55;97920.91;8417634;28;20199;-63
2021/07/10 14:43:09;;;;;;;3.03;2.07;;;;;;;26.80;38.40;97918.69;8409209;28;20193;-63
2021/07/10 14:47:12;;;;;;;2.83;1.60;;;;;;;26.18;38.24;97911.38;8393801;28;20235;-63
2021/07/10 14:51:14;;;;;;;2.50;2.10;;;;;;;25.80;38.92;97911.06;8409152;28;20198;-64
2021/07/10 14:55:18;;;;;;;2.70;1.57;;;;;;;25.85;38.77;97902.59;8387373;28;20201;-64
2021/07/10 14:59:22;;;;;;;1.97;1.70;;;;;;;26.23;38.06;97895.78;8400712;28;20191;-64
2021/07/10 15:03:25;;;;;;;2.70;1.77;;;;;;;26.31;38.33;97902.88;8404628;28;20281;-63
2021/07/10 15:07:28;;;;;;;2.23;2.03;;;;;;;26.42;37.64;97893.75;8384159;28;20542;-64
2021/07/10 15:11:31;;;;;;;2.47;1.90;;;;;;;26.54;40.92;97892.38;8383610;28;20492;-64
2021/07/10 15:15:35;;;;;;;9.00;8.20;;;;;;;26.36;40.28;97892.59;8383337;28;20206;-67
2021/07/10 15:19:38;;;;;;;3.70;3.17;;;;;;;25.82;41.15;97887.84;8383481;28;20202;-66
2021/07/10 15:23:41;;;;;;;4.70;3.97;;;;;;;26.01;41.45;97883.19;8382828;28;20201;-66
2021/07/10 15:27:44;;;;;;;76.47;68.33;;;;;;;26.34;39.82;97883.97;8383205;28;20230;-67
2021/07/10 15:31:48;;;;;;;3.57;3.20;;;;;;;25.78;39.00;97875.94;8383171;28;20511;-67
2021/07/10 15:35:51;;;;;;;5.03;4.53;;;;;;;26.25;39.56;97869.88;8382908;28;20216;-66
2021/07/10 15:39:53;;;;;;;2.50;1.63;;;;;;;25.38;37.98;97859.03;8382586;28;20272;-67
2021/07/10 15:43:56;;;;;;;1.60;1.50;;;;;;;25.72;37.90;97860.66;8382484;28;20347;-67
2021/07/10 15:48:01;;;;;;;2.63;2.30;;;;;;;25.50;39.67;97857.69;8397603;28;20221;-66
2021/07/10 15:52:04;;;;;;;2.90;2.03;;;;;;;25.84;40.36;97851.38;8389931;28;20200;-66
2021/07/10 15:56:07;;;;;;;2.23;1.50;;;;;;;25.90;39.64;97847.22;8397714;28;20201;-66
2021/07/10 16:00:13;;;;;;;3.13;1.50;;;;;;;25.70;38.10;97852.03;8396744;28;20205;-66
2021/07/10 16:04:17;;;;;;;24.07;4.00;;;;;;;25.45;37.97;97846.75;8397867;28;20206;-66
2021/07/10 16:08:20;;;;;;;13.63;2.57;;;;;;;25.17;38.34;97835.63;8380953;28;20228;-66
2021/07/10 16:12:23;;;;;;;1.57;1.33;;;;;;;25.18;37.76;97826.66;8380812;28;20199;-66
2021/07/10 16:16:26;;;;;;;6.87;2.40;;;;;;;25.07;38.79;97824.31;8381116;28;20195;-66
2021/07/10 16:20:31;;;;;;;5.17;3.73;;;;;;;25.10;38.87;97827.47;8379918;28;20211;-66
2021/07/10 16:24:36;;;;;;;1.87;1.40;;;;;;;25.21;39.59;97823.69;8380474;28;20194;-66
2021/07/10 16:28:39;;;;;;;2.40;1.33;;;;;;;24.91;39.33;97822.47;8380455;28;20236;-66
2021/07/10 16:32:43;;;;;;;2.67;2.47;;;;;;;25.03;39.17;97821.16;8380555;28;20194;-66
2021/07/10 16:36:47;;;;;;;2.37;2.00;;;;;;;25.27;40.84;97815.09;8380509;28;20222;-66
2021/07/10 16:40:50;;;;;;;2.37;2.10;;;;;;;25.31;39.78;97811.13;8394208;28;20512;-66
2021/07/10 16:44:52;;;;;;;1.93;1.40;;;;;;;25.18;40.36;97808.94;8384441;28;20208;-65
2021/07/10 16:48:55;;;;;;;3.53;2.03;;;;;;;25.05;40.74;97805.94;8394827;28;20416;-65
2021/07/10 16:53:00;;;;;;;4.53;2.10;;;;;;;24.82;40.40;97808.38;8391717;28;20198;-65
2021/07/10 16:57:03;;;;;;;2.60;2.30;;;;;;;24.63;41.06;97808.66;8397349;28;20224;-65
2021/07/10 17:01:07;;;;;;;6.50;2.67;;;;;;;24.47;41.44;97804.94;8407321;28;20203;-64
2021/07/10 17:05:12;;;;;;;3.50;3.20;;;;;;;24.45;42.20;97809.56;8414237;28;20199;-68
2021/07/10 17:09:16;;;;;;;3.13;2.50;;;;;;;24.48;41.81;97813.72;8411486;28;20226;-69
2021/07/10 17:13:19;;;;;;;2.10;1.83;;;;;;;24.64;42.11;97810.34;8394961;28;20380;-68
2021/07/10 17:17:22;;;;;;;2.00;1.60;;;;;;;24.46;41.26;97800.63;8394708;28;20197;-69
2021/07/10 17:21:25;;;;;;;4.63;2.80;;;;;;;24.50;41.88;97809.09;8397215;28;20194;-69
2021/07/10 17:25:29;;;;;;;2.40;2.20;;;;;;;24.44;41.67;97802.63;8408683;28;20194;-70
2021/07/10 17:29:32;;;;;;;3.30;2.20;;;;;;;24.50;42.22;97806.44;8419678;28;20266;-67
2021/07/10 17:33:35;;;;;;;3.50;2.73;;;;;;;24.43;42.39;97797.47;8419429;28;20195;-67
2021/07/10 17:37:38;;;;;;;2.60;2.40;;;;;;;24.47;42.96;97790.91;8418137;28;20513;-67
2021/07/10 17:41:43;;;;;;;3.83;2.80;;;;;;;24.49;43.48;97796.84;8420728;28;20203;-68
2021/07/10 17:45:46;;;;;;;5.30;3.70;;;;;;;24.36;43.42;97790.19;8420718;28;20204;-68
2021/07/10 17:49:49;;;;;;;10.37;6.03;;;;;;;24.36;42.88;97792.81;8420889;28;20227;-67
2021/07/10 17:53:52;;;;;;;14.27;8.47;;;;;;;24.42;44.52;97794.00;8413651;28;20217;-68
2021/07/10 17:57:56;;;;;;;19.57;8.97;;;;;;;24.34;45.07;97793.97;8418007;28;20199;-68
2021/07/10 18:01:59;;;;;;;9.57;6.10;;;;;;;24.31;45.53;97791.66;8419814;28;20269;-67
2021/07/10 18:06:02;;;;;;;14.07;7.53;;;;;;;24.27;44.61;97788.47;8419530;28;20216;-68
2021/07/10 18:10:07;;;;;;;9.23;6.47;;;;;;;24.33;44.61;97793.16;8420350;28;20226;-68
2021/07/10 18:14:11;;;;;;;8.80;5.43;;;;;;;24.35;44.30;97798.28;8420146;28;20199;-69
2021/07/10 18:18:14;;;;;;;3.33;1.90;;;;;;;24.30;44.75;97797.94;8419522;28;20211;-68
2021/07/10 18:22:17;;;;;;;2.83;2.00;;;;;;;24.20;44.91;97787.50;8419656;28;20203;-68
2021/07/10 18:26:20;;;;;;;5.97;2.93;;;;;;;24.26;45.78;97786.03;8419628;28;20371;-68
2021/07/10 18:30:24;;;;;;;3.83;1.70;;;;;;;24.00;44.62;97787.69;8418986;28;20425;-68
2021/07/10 18:34:27;;;;;;;4.10;2.13;;;;;;;23.96;44.83;97788.19;8415479;28;20203;-68
2021/07/10 18:38:30;;;;;;;1.90;1.70;;;;;;;23.88;45.23;97788.16;8412180;28;20210;-68
2021/07/10 18:42:32;;;;;;;5.97;1.90;;;;;;;23.84;46.25;97784.97;8417964;28;20347;-65
2021/07/10 18:46:37;;;;;;;2.37;1.53;;;;;;;23.75;46.13;97780.59;8406397;28;20222;-65
2021/07/10 18:50:41;;;;;;;2.53;2.30;;;;;;;23.61;46.68;97780.19;8400577;28;20194;-67
2021/07/10 18:54:46;;;;;;;3.40;3.07;;;;;;;23.56;47.08;97774.53;8402006;28;20200;-67
2021/07/10 18:58:48;;;;;;;2.17;1.97;;;;;;;23.32;48.15;97767.28;8400347;28;20399;-66